CheckWX is a tool to help pilots better visualize weather data.  It is not intended as a substitute for an official pre-flight weather briefing.

11:35:07 UTC

DAUG TAF
Noumérat - Moufdi Zakaria Airport
Ghardaïa, Algeria
TAF DAUG 031100Z 0312/0412 34012KT 8000 NSC PROB30 TEMPO 0312/0316 34015G25KT 4000 DRSA BECMG 0402/0405 04010KT BECMG 0409/0412 10008KT

Apr-3@
12:00 UTC

Apr-3 @ 12:00 UTC

Apr-4@
02:00 UTC

Apr-4 @ 02:00 UTC

TAF DAUG 031100Z 0312/0412 34012KT 8000 NSC

Expired

Wind
  • 340° at 12 KTS
Cloud Levels
  • No significant clouds

Apr-3@
12:00 UTC

Apr-3 @ 12:00 UTC

Apr-3@
16:00 UTC

Apr-3 @ 16:00 UTC

PROB30 TEMPO 0312/0316 34015G25KT 4000 DRSA

Expired

Wind
  • 340° at 15 KTS
  • {Gusting to 25 KTS
Conditions
Low drifting Sand
Cloud Levels

Apr-4@
02:00 UTC

Apr-4 @ 02:00 UTC

Apr-4@
09:00 UTC

Apr-4 @ 09:00 UTC

BECMG 0402/0405 04010KT

Expired

Wind
  • 040° at 10 KTS
Cloud Levels
  • No significant clouds

Apr-4@
09:00 UTC

Apr-4 @ 09:00 UTC

Apr-4@
12:00 UTC

Apr-4 @ 12:00 UTC

BECMG 0409/0412 10008KT

Becoming

Becoming Conditions expected by Sat, Apr 4, 2020 @ 12:00 UTC

Wind
  • 100° at 8 KTS
Cloud Levels
  • No significant clouds